Terminal Aerodrome Forecast
Issued by NWS

Home | Current Version | Previous Version | Text Only | Print | Product List | Glossary On
Versions: 1 2 3 4 5 6 7 8 9 10 11 12 13 14 15 16 17 18 19 20 21
000
FTUS43 KEAX 231159 CCB
TAFSTJ
TAF COR
KSTJ 231159Z 2312/2412 04013KT P6SM VCSH OVC100
      TEMPO 2313/2315 OVC008
     FM232000 05009KT P6SM OVC020
     FM240000 04011KT 5SM BR VCSH OVC015
     FM240700 35009KT P6SM BKN025=

USA.gov is the U.S. government's official web portal to all federal, state and local government web resources and services.